Terminal Aerodrome Forecast
Issued by NWS

Home | Current Version | Previous Version | Graphics & Text | Print | Product List | Glossary On
Versions: 1 2 3 4 5 6 7 8 9 10 11 12 13 14 15 16 17 18 19 20 21 22
481
FTUS42 KMHX 152244 AAA
TAFISO
TAF AMD
KISO 152244Z 1523/1618 VRB04KT P6SM SHRA VCTS SCT035CB
     FM160300 VRB03KT P6SM BKN040
     FM160700 VRB03KT 3SM BR BKN008
     FM161300 VRB04KT P6SM SCT015 BKN060
      AMD LTD TO CLD VIS AND WIND=

USA.gov is the U.S. government's official web portal to all federal, state and local government web resources and services.